sensor_id;sensor_type;location;lat;lon;timestamp;P1;durP1;ratioP1;P2;durP2;ratioP2
7693;SDS011;3889;48.162;11.510;2022-12-18T00:01:23;53.83;;;41.40;;
7693;SDS011;3889;48.162;11.510;2022-12-18T00:03:54;57.97;;;44.25;;
7693;SDS011;3889;48.162;11.510;2022-12-18T00:06:47;58.97;;;44.35;;
7693;SDS011;3889;48.162;11.510;2022-12-18T00:09:15;60.97;;;46.03;;
7693;SDS011;3889;48.162;11.510;2022-12-18T00:11:43;60.30;;;44.07;;
7693;SDS011;3889;48.162;11.510;2022-12-18T00:14:11;57.25;;;43.42;;
7693;SDS011;3889;48.162;11.510;2022-12-18T00:16:42;55.17;;;42.17;;
7693;SDS011;3889;48.162;11.510;2022-12-18T00:19:12;58.65;;;42.88;;
7693;SDS011;3889;48.162;11.510;2022-12-18T00:21:41;56.50;;;43.95;;
7693;SDS011;3889;48.162;11.510;2022-12-18T00:24:10;55.97;;;42.67;;
7693;SDS011;3889;48.162;11.510;2022-12-18T00:26:38;54.40;;;41.92;;
7693;SDS011;3889;48.162;11.510;2022-12-18T00:29:07;56.92;;;43.33;;
7693;SDS011;3889;48.162;11.510;2022-12-18T00:31:39;61.03;;;45.67;;
7693;SDS011;3889;48.162;11.510;2022-12-18T00:34:09;61.85;;;45.03;;
7693;SDS011;3889;48.162;11.510;2022-12-18T00:36:39;58.43;;;42.40;;
7693;SDS011;3889;48.162;11.510;2022-12-18T00:39:07;68.13;;;45.03;;
7693;SDS011;3889;48.162;11.510;2022-12-18T00:41:37;58.70;;;44.28;;
7693;SDS011;3889;48.162;11.510;2022-12-18T00:44:23;61.92;;;44.38;;
7693;SDS011;3889;48.162;11.510;2022-12-18T00:46:50;65.80;;;45.40;;
7693;SDS011;3889;48.162;11.510;2022-12-18T00:49:19;65.25;;;44.50;;
7693;SDS011;3889;48.162;11.510;2022-12-18T00:51:49;61.72;;;43.55;;
7693;SDS011;3889;48.162;11.510;2022-12-18T00:54:16;65.10;;;45.55;;
7693;SDS011;3889;48.162;11.510;2022-12-18T00:56:45;69.38;;;45.92;;
7693;SDS011;3889;48.162;11.510;2022-12-18T00:59:15;69.35;;;45.92;;
7693;SDS011;3889;48.162;11.510;2022-12-18T01:01:43;65.13;;;45.40;;
7693;SDS011;3889;48.162;11.510;2022-12-18T01:04:12;70.07;;;46.53;;
7693;SDS011;3889;48.162;11.510;2022-12-18T01:06:41;68.07;;;45.45;;
7693;SDS011;3889;48.162;11.510;2022-12-18T01:09:12;62.80;;;43.38;;
7693;SDS011;3889;48.162;11.510;2022-12-18T01:11:40;68.10;;;45.47;;
7693;SDS011;3889;48.162;11.510;2022-12-18T01:14:08;63.80;;;43.63;;
7693;SDS011;3889;48.162;11.510;2022-12-18T01:16:36;62.90;;;43.80;;
7693;SDS011;3889;48.162;11.510;2022-12-18T01:19:03;59.13;;;42.15;;
7693;SDS011;3889;48.162;11.510;2022-12-18T01:21:31;67.53;;;44.30;;
7693;SDS011;3889;48.162;11.510;2022-12-18T01:23:59;62.85;;;43.45;;
7693;SDS011;3889;48.162;11.510;2022-12-18T01:26:28;66.88;;;43.67;;
7693;SDS011;3889;48.162;11.510;2022-12-18T01:28:56;60.83;;;41.97;;
7693;SDS011;3889;48.162;11.510;2022-12-18T01:31:25;60.90;;;41.73;;
7693;SDS011;3889;48.162;11.510;2022-12-18T01:33:54;58.38;;;41.15;;
7693;SDS011;3889;48.162;11.510;2022-12-18T01:36:23;57.75;;;41.00;;
7693;SDS011;3889;48.162;11.510;2022-12-18T01:38:52;59.33;;;41.90;;
7693;SDS011;3889;48.162;11.510;2022-12-18T01:41:21;57.17;;;40.72;;
7693;SDS011;3889;48.162;11.510;2022-12-18T01:43:53;58.60;;;41.15;;
7693;SDS011;3889;48.162;11.510;2022-12-18T01:46:25;59.22;;;40.55;;
7693;SDS011;3889;48.162;11.510;2022-12-18T01:48:55;61.75;;;42.63;;
7693;SDS011;3889;48.162;11.510;2022-12-18T01:51:25;59.42;;;41.05;;
7693;SDS011;3889;48.162;11.510;2022-12-18T01:53:54;58.28;;;40.38;;
7693;SDS011;3889;48.162;11.510;2022-12-18T01:56:23;57.95;;;41.13;;
7693;SDS011;3889;48.162;11.510;2022-12-18T01:58:54;58.72;;;41.85;;
7693;SDS011;3889;48.162;11.510;2022-12-18T02:01:26;57.53;;;40.70;;
7693;SDS011;3889;48.162;11.510;2022-12-18T02:03:56;57.53;;;41.33;;
7693;SDS011;3889;48.162;11.510;2022-12-18T02:06:46;55.88;;;40.05;;
7693;SDS011;3889;48.162;11.510;2022-12-18T02:09:23;55.90;;;40.67;;
7693;SDS011;3889;48.162;11.510;2022-12-18T02:11:57;50.88;;;37.60;;
7693;SDS011;3889;48.162;11.510;2022-12-18T02:14:31;52.95;;;38.80;;
7693;SDS011;3889;48.162;11.510;2022-12-18T02:17:06;49.70;;;38.30;;
7693;SDS011;3889;48.162;11.510;2022-12-18T02:19:47;53.13;;;38.50;;
7693;SDS011;3889;48.162;11.510;2022-12-18T02:22:26;54.28;;;39.83;;
7693;SDS011;3889;48.162;11.510;2022-12-18T02:25:11;54.45;;;40.13;;
7693;SDS011;3889;48.162;11.510;2022-12-18T02:27:48;54.85;;;40.97;;
7693;SDS011;3889;48.162;11.510;2022-12-18T02:30:19;56.63;;;41.22;;
7693;SDS011;3889;48.162;11.510;2022-12-18T02:32:48;57.92;;;42.30;;
7693;SDS011;3889;48.162;11.510;2022-12-18T02:35:20;53.40;;;39.17;;
7693;SDS011;3889;48.162;11.510;2022-12-18T02:37:51;55.20;;;40.53;;
7693;SDS011;3889;48.162;11.510;2022-12-18T02:40:22;54.88;;;41.55;;
7693;SDS011;3889;48.162;11.510;2022-12-18T02:42:53;54.80;;;41.17;;
7693;SDS011;3889;48.162;11.510;2022-12-18T02:45:21;59.63;;;41.80;;
7693;SDS011;3889;48.162;11.510;2022-12-18T02:47:49;58.40;;;42.05;;
7693;SDS011;3889;48.162;11.510;2022-12-18T02:50:19;62.58;;;45.08;;
7693;SDS011;3889;48.162;11.510;2022-12-18T02:52:55;63.25;;;44.85;;
7693;SDS011;3889;48.162;11.510;2022-12-18T02:55:37;59.53;;;42.97;;
7693;SDS011;3889;48.162;11.510;2022-12-18T02:58:15;61.30;;;45.20;;
7693;SDS011;3889;48.162;11.510;2022-12-18T03:00:48;66.13;;;46.72;;
7693;SDS011;3889;48.162;11.510;2022-12-18T03:03:25;64.05;;;46.38;;
7693;SDS011;3889;48.162;11.510;2022-12-18T03:05:57;69.07;;;47.10;;
7693;SDS011;3889;48.162;11.510;2022-12-18T03:08:29;66.63;;;47.75;;
7693;SDS011;3889;48.162;11.510;2022-12-18T03:11:01;68.63;;;47.40;;
7693;SDS011;3889;48.162;11.510;2022-12-18T03:13:33;64.80;;;46.30;;
7693;SDS011;3889;48.162;11.510;2022-12-18T03:16:05;64.25;;;46.25;;
7693;SDS011;3889;48.162;11.510;2022-12-18T03:18:36;63.83;;;46.28;;
7693;SDS011;3889;48.162;11.510;2022-12-18T03:21:09;67.40;;;47.10;;
7693;SDS011;3889;48.162;11.510;2022-12-18T03:23:39;63.42;;;45.13;;
7693;SDS011;3889;48.162;11.510;2022-12-18T03:26:11;60.47;;;42.35;;
7693;SDS011;3889;48.162;11.510;2022-12-18T03:28:44;62.03;;;44.03;;
7693;SDS011;3889;48.162;11.510;2022-12-18T03:31:15;60.58;;;43.90;;
7693;SDS011;3889;48.162;11.510;2022-12-18T03:33:46;60.20;;;43.83;;
7693;SDS011;3889;48.162;11.510;2022-12-18T03:36:18;60.60;;;43.33;;
7693;SDS011;3889;48.162;11.510;2022-12-18T03:38:46;59.73;;;44.60;;
7693;SDS011;3889;48.162;11.510;2022-12-18T03:41:16;62.78;;;44.33;;
7693;SDS011;3889;48.162;11.510;2022-12-18T03:43:50;58.70;;;43.13;;
7693;SDS011;3889;48.162;11.510;2022-12-18T03:46:24;62.88;;;44.33;;
7693;SDS011;3889;48.162;11.510;2022-12-18T03:48:59;64.22;;;45.45;;
7693;SDS011;3889;48.162;11.510;2022-12-18T03:51:36;67.05;;;46.97;;
7693;SDS011;3889;48.162;11.510;2022-12-18T03:54:07;63.50;;;45.58;;
7693;SDS011;3889;48.162;11.510;2022-12-18T03:56:38;61.90;;;44.75;;
7693;SDS011;3889;48.162;11.510;2022-12-18T03:59:10;61.80;;;44.45;;
7693;SDS011;3889;48.162;11.510;2022-12-18T04:01:42;62.28;;;45.78;;
7693;SDS011;3889;48.162;11.510;2022-12-18T04:04:14;60.70;;;44.00;;
7693;SDS011;3889;48.162;11.510;2022-12-18T04:06:45;59.75;;;44.58;;
7693;SDS011;3889;48.162;11.510;2022-12-18T04:09:15;60.10;;;44.38;;
7693;SDS011;3889;48.162;11.510;2022-12-18T04:11:42;61.40;;;45.43;;
7693;SDS011;3889;48.162;11.510;2022-12-18T04:14:12;59.88;;;44.28;;
7693;SDS011;3889;48.162;11.510;2022-12-18T04:16:43;61.35;;;43.83;;
7693;SDS011;3889;48.162;11.510;2022-12-18T04:19:11;58.60;;;43.53;;
7693;SDS011;3889;48.162;11.510;2022-12-18T04:21:39;59.75;;;43.88;;
7693;SDS011;3889;48.162;11.510;2022-12-18T04:24:07;59.72;;;43.25;;
7693;SDS011;3889;48.162;11.510;2022-12-18T04:26:35;58.60;;;43.47;;
7693;SDS011;3889;48.162;11.510;2022-12-18T04:29:04;58.13;;;42.53;;
7693;SDS011;3889;48.162;11.510;2022-12-18T04:31:33;57.88;;;43.08;;
7693;SDS011;3889;48.162;11.510;2022-12-18T04:34:01;57.17;;;42.50;;
7693;SDS011;3889;48.162;11.510;2022-12-18T04:36:29;58.13;;;42.63;;
7693;SDS011;3889;48.162;11.510;2022-12-18T04:38:57;57.88;;;43.05;;
7693;SDS011;3889;48.162;11.510;2022-12-18T04:41:24;55.22;;;40.55;;
7693;SDS011;3889;48.162;11.510;2022-12-18T04:43:52;55.55;;;41.40;;
7693;SDS011;3889;48.162;11.510;2022-12-18T04:46:20;54.60;;;39.67;;
7693;SDS011;3889;48.162;11.510;2022-12-18T04:48:49;53.95;;;40.90;;
7693;SDS011;3889;48.162;11.510;2022-12-18T04:51:17;53.05;;;39.47;;
7693;SDS011;3889;48.162;11.510;2022-12-18T04:53:51;55.72;;;40.47;;
7693;SDS011;3889;48.162;11.510;2022-12-18T04:56:19;53.55;;;41.45;;
7693;SDS011;3889;48.162;11.510;2022-12-18T04:58:47;55.63;;;40.30;;
7693;SDS011;3889;48.162;11.510;2022-12-18T05:01:16;54.95;;;40.35;;
7693;SDS011;3889;48.162;11.510;2022-12-18T05:03:45;49.95;;;38.58;;
7693;SDS011;3889;48.162;11.510;2022-12-18T05:06:14;49.25;;;37.47;;
7693;SDS011;3889;48.162;11.510;2022-12-18T05:08:42;52.00;;;38.38;;
7693;SDS011;3889;48.162;11.510;2022-12-18T05:11:12;52.45;;;39.17;;
7693;SDS011;3889;48.162;11.510;2022-12-18T05:13:42;51.58;;;38.85;;
7693;SDS011;3889;48.162;11.510;2022-12-18T05:16:11;51.60;;;39.10;;
7693;SDS011;3889;48.162;11.510;2022-12-18T05:18:39;47.55;;;37.95;;
7693;SDS011;3889;48.162;11.510;2022-12-18T05:21:07;51.80;;;39.03;;
7693;SDS011;3889;48.162;11.510;2022-12-18T05:23:36;51.78;;;39.28;;
7693;SDS011;3889;48.162;11.510;2022-12-18T05:26:05;52.05;;;39.38;;
7693;SDS011;3889;48.162;11.510;2022-12-18T05:28:35;52.55;;;40.28;;
7693;SDS011;3889;48.162;11.510;2022-12-18T05:31:03;51.88;;;39.28;;
7693;SDS011;3889;48.162;11.510;2022-12-18T05:33:32;54.92;;;40.67;;
7693;SDS011;3889;48.162;11.510;2022-12-18T05:36:03;52.50;;;39.42;;
7693;SDS011;3889;48.162;11.510;2022-12-18T05:38:33;51.97;;;39.85;;
7693;SDS011;3889;48.162;11.510;2022-12-18T05:41:03;52.88;;;38.75;;
7693;SDS011;3889;48.162;11.510;2022-12-18T05:43:33;50.33;;;38.80;;
7693;SDS011;3889;48.162;11.510;2022-12-18T05:46:03;48.58;;;37.60;;
7693;SDS011;3889;48.162;11.510;2022-12-18T05:48:32;50.78;;;38.33;;
7693;SDS011;3889;48.162;11.510;2022-12-18T05:51:03;48.72;;;37.78;;
7693;SDS011;3889;48.162;11.510;2022-12-18T05:53:33;50.92;;;37.90;;
7693;SDS011;3889;48.162;11.510;2022-12-18T05:56:05;52.55;;;39.45;;
7693;SDS011;3889;48.162;11.510;2022-12-18T05:58:34;48.93;;;37.27;;
7693;SDS011;3889;48.162;11.510;2022-12-18T06:01:06;47.22;;;35.72;;
7693;SDS011;3889;48.162;11.510;2022-12-18T06:03:36;50.17;;;38.53;;
7693;SDS011;3889;48.162;11.510;2022-12-18T06:06:04;49.00;;;37.58;;
7693;SDS011;3889;48.162;11.510;2022-12-18T06:08:39;49.92;;;38.35;;
7693;SDS011;3889;48.162;11.510;2022-12-18T06:11:13;49.55;;;37.85;;
7693;SDS011;3889;48.162;11.510;2022-12-18T06:13:43;51.72;;;38.50;;
7693;SDS011;3889;48.162;11.510;2022-12-18T06:16:10;50.75;;;37.67;;
7693;SDS011;3889;48.162;11.510;2022-12-18T06:18:38;47.50;;;36.65;;
7693;SDS011;3889;48.162;11.510;2022-12-18T06:21:06;46.85;;;36.35;;
7693;SDS011;3889;48.162;11.510;2022-12-18T06:23:34;45.40;;;34.80;;
7693;SDS011;3889;48.162;11.510;2022-12-18T06:26:03;47.13;;;35.85;;
7693;SDS011;3889;48.162;11.510;2022-12-18T06:28:33;46.20;;;34.90;;
7693;SDS011;3889;48.162;11.510;2022-12-18T06:31:02;44.58;;;34.83;;
7693;SDS011;3889;48.162;11.510;2022-12-18T06:33:30;44.67;;;34.55;;
7693;SDS011;3889;48.162;11.510;2022-12-18T06:35:59;43.75;;;34.50;;
7693;SDS011;3889;48.162;11.510;2022-12-18T06:38:27;40.80;;;32.22;;
7693;SDS011;3889;48.162;11.510;2022-12-18T06:40:55;40.80;;;32.27;;
7693;SDS011;3889;48.162;11.510;2022-12-18T06:43:23;44.67;;;35.35;;
7693;SDS011;3889;48.162;11.510;2022-12-18T06:45:57;45.70;;;35.20;;
7693;SDS011;3889;48.162;11.510;2022-12-18T06:48:26;47.55;;;36.03;;
7693;SDS011;3889;48.162;11.510;2022-12-18T06:50:54;45.60;;;35.03;;
7693;SDS011;3889;48.162;11.510;2022-12-18T06:53:22;44.97;;;34.20;;
7693;SDS011;3889;48.162;11.510;2022-12-18T06:55:49;43.80;;;34.90;;
7693;SDS011;3889;48.162;11.510;2022-12-18T06:58:17;46.42;;;36.25;;
7693;SDS011;3889;48.162;11.510;2022-12-18T07:00:46;47.47;;;36.85;;
7693;SDS011;3889;48.162;11.510;2022-12-18T07:03:15;48.65;;;37.00;;
7693;SDS011;3889;48.162;11.510;2022-12-18T07:05:42;50.97;;;37.50;;
7693;SDS011;3889;48.162;11.510;2022-12-18T07:08:10;51.30;;;38.15;;
7693;SDS011;3889;48.162;11.510;2022-12-18T07:10:40;49.40;;;37.72;;
7693;SDS011;3889;48.162;11.510;2022-12-18T07:13:13;48.50;;;37.40;;
7693;SDS011;3889;48.162;11.510;2022-12-18T07:15:41;46.95;;;37.10;;
7693;SDS011;3889;48.162;11.510;2022-12-18T07:18:09;49.33;;;37.40;;
7693;SDS011;3889;48.162;11.510;2022-12-18T07:20:40;48.83;;;36.50;;
7693;SDS011;3889;48.162;11.510;2022-12-18T07:23:07;47.45;;;35.78;;
7693;SDS011;3889;48.162;11.510;2022-12-18T07:25:35;47.83;;;36.28;;
7693;SDS011;3889;48.162;11.510;2022-12-18T07:28:04;45.20;;;35.17;;
7693;SDS011;3889;48.162;11.510;2022-12-18T07:30:32;45.90;;;34.58;;
7693;SDS011;3889;48.162;11.510;2022-12-18T07:33:00;47.53;;;36.08;;
7693;SDS011;3889;48.162;11.510;2022-12-18T07:35:28;46.70;;;36.45;;
7693;SDS011;3889;48.162;11.510;2022-12-18T07:37:57;44.60;;;34.63;;
7693;SDS011;3889;48.162;11.510;2022-12-18T07:40:25;44.03;;;34.03;;
7693;SDS011;3889;48.162;11.510;2022-12-18T07:42:52;44.80;;;35.17;;
7693;SDS011;3889;48.162;11.510;2022-12-18T07:45:20;44.42;;;34.13;;
7693;SDS011;3889;48.162;11.510;2022-12-18T07:47:48;43.90;;;33.40;;
7693;SDS011;3889;48.162;11.510;2022-12-18T07:50:16;44.85;;;34.75;;
7693;SDS011;3889;48.162;11.510;2022-12-18T07:52:44;46.30;;;34.03;;
7693;SDS011;3889;48.162;11.510;2022-12-18T07:55:13;45.13;;;34.20;;
7693;SDS011;3889;48.162;11.510;2022-12-18T07:57:41;47.90;;;36.45;;
7693;SDS011;3889;48.162;11.510;2022-12-18T08:00:20;48.90;;;36.00;;
7693;SDS011;3889;48.162;11.510;2022-12-18T08:02:48;46.58;;;35.65;;
7693;SDS011;3889;48.162;11.510;2022-12-18T08:05:16;48.08;;;36.17;;
7693;SDS011;3889;48.162;11.510;2022-12-18T08:07:44;47.95;;;36.90;;
7693;SDS011;3889;48.162;11.510;2022-12-18T08:10:13;48.67;;;37.90;;
7693;SDS011;3889;48.162;11.510;2022-12-18T08:12:41;45.88;;;36.17;;
7693;SDS011;3889;48.162;11.510;2022-12-18T08:15:09;44.58;;;35.28;;
7693;SDS011;3889;48.162;11.510;2022-12-18T08:17:37;47.53;;;35.50;;
7693;SDS011;3889;48.162;11.510;2022-12-18T08:20:06;48.10;;;36.70;;
7693;SDS011;3889;48.162;11.510;2022-12-18T08:22:34;48.53;;;36.50;;
7693;SDS011;3889;48.162;11.510;2022-12-18T08:25:02;46.85;;;36.05;;
7693;SDS011;3889;48.162;11.510;2022-12-18T08:27:32;46.08;;;35.80;;
7693;SDS011;3889;48.162;11.510;2022-12-18T08:30:01;44.63;;;34.58;;
7693;SDS011;3889;48.162;11.510;2022-12-18T08:32:29;43.22;;;33.78;;
7693;SDS011;3889;48.162;11.510;2022-12-18T08:34:58;43.08;;;32.78;;
7693;SDS011;3889;48.162;11.510;2022-12-18T08:37:26;40.47;;;32.25;;
7693;SDS011;3889;48.162;11.510;2022-12-18T08:39:54;39.80;;;31.57;;
7693;SDS011;3889;48.162;11.510;2022-12-18T08:42:22;38.17;;;30.88;;
7693;SDS011;3889;48.162;11.510;2022-12-18T08:45:09;38.03;;;30.15;;
7693;SDS011;3889;48.162;11.510;2022-12-18T08:47:37;36.83;;;30.17;;
7693;SDS011;3889;48.162;11.510;2022-12-18T08:50:05;38.63;;;31.70;;
7693;SDS011;3889;48.162;11.510;2022-12-18T08:52:33;39.90;;;30.98;;
7693;SDS011;3889;48.162;11.510;2022-12-18T08:55:01;38.15;;;31.05;;
7693;SDS011;3889;48.162;11.510;2022-12-18T08:57:29;37.70;;;30.10;;
7693;SDS011;3889;48.162;11.510;2022-12-18T08:59:59;38.22;;;30.52;;
7693;SDS011;3889;48.162;11.510;2022-12-18T09:02:28;36.60;;;29.40;;
7693;SDS011;3889;48.162;11.510;2022-12-18T09:04:56;38.42;;;30.48;;
7693;SDS011;3889;48.162;11.510;2022-12-18T09:07:24;37.47;;;29.80;;
7693;SDS011;3889;48.162;11.510;2022-12-18T09:09:52;35.80;;;29.00;;
7693;SDS011;3889;48.162;11.510;2022-12-18T09:12:20;34.50;;;28.65;;
7693;SDS011;3889;48.162;11.510;2022-12-18T09:14:48;38.72;;;30.77;;
7693;SDS011;3889;48.162;11.510;2022-12-18T09:17:16;39.17;;;30.95;;
7693;SDS011;3889;48.162;11.510;2022-12-18T09:19:45;39.25;;;31.17;;
7693;SDS011;3889;48.162;11.510;2022-12-18T09:22:13;37.97;;;30.38;;
7693;SDS011;3889;48.162;11.510;2022-12-18T09:24:41;38.22;;;29.95;;
7693;SDS011;3889;48.162;11.510;2022-12-18T09:27:09;37.53;;;30.50;;
7693;SDS011;3889;48.162;11.510;2022-12-18T09:29:37;35.67;;;29.25;;
7693;SDS011;3889;48.162;11.510;2022-12-18T09:32:05;35.00;;;28.38;;
7693;SDS011;3889;48.162;11.510;2022-12-18T09:34:33;36.38;;;29.00;;
7693;SDS011;3889;48.162;11.510;2022-12-18T09:37:02;36.47;;;28.27;;
7693;SDS011;3889;48.162;11.510;2022-12-18T09:39:30;35.33;;;28.70;;
7693;SDS011;3889;48.162;11.510;2022-12-18T09:42:01;36.53;;;29.35;;
7693;SDS011;3889;48.162;11.510;2022-12-18T09:44:29;37.08;;;28.73;;
7693;SDS011;3889;48.162;11.510;2022-12-18T09:47:10;35.00;;;28.10;;
7693;SDS011;3889;48.162;11.510;2022-12-18T09:49:43;34.30;;;28.33;;
7693;SDS011;3889;48.162;11.510;2022-12-18T09:52:16;33.70;;;27.50;;
7693;SDS011;3889;48.162;11.510;2022-12-18T09:54:47;33.90;;;27.42;;
7693;SDS011;3889;48.162;11.510;2022-12-18T09:57:19;33.63;;;27.75;;
7693;SDS011;3889;48.162;11.510;2022-12-18T09:59:51;35.95;;;28.52;;
7693;SDS011;3889;48.162;11.510;2022-12-18T10:02:23;36.50;;;28.67;;
7693;SDS011;3889;48.162;11.510;2022-12-18T10:05:00;34.80;;;28.67;;
7693;SDS011;3889;48.162;11.510;2022-12-18T10:07:43;35.30;;;28.88;;
7693;SDS011;3889;48.162;11.510;2022-12-18T10:10:23;35.55;;;28.35;;
7693;SDS011;3889;48.162;11.510;2022-12-18T10:12:57;35.75;;;28.70;;
7693;SDS011;3889;48.162;11.510;2022-12-18T10:15:34;34.22;;;27.48;;
7693;SDS011;3889;48.162;11.510;2022-12-18T10:18:12;33.55;;;26.60;;
7693;SDS011;3889;48.162;11.510;2022-12-18T10:20:49;33.13;;;27.05;;
7693;SDS011;3889;48.162;11.510;2022-12-18T10:23:23;33.30;;;26.88;;
7693;SDS011;3889;48.162;11.510;2022-12-18T10:25:55;32.22;;;26.73;;
7693;SDS011;3889;48.162;11.510;2022-12-18T10:28:29;33.90;;;27.70;;
7693;SDS011;3889;48.162;11.510;2022-12-18T10:30:58;34.30;;;27.65;;
7693;SDS011;3889;48.162;11.510;2022-12-18T10:33:28;33.63;;;27.33;;
7693;SDS011;3889;48.162;11.510;2022-12-18T10:35:57;33.58;;;27.33;;
7693;SDS011;3889;48.162;11.510;2022-12-18T10:38:27;32.28;;;27.15;;
7693;SDS011;3889;48.162;11.510;2022-12-18T10:40:59;34.53;;;27.60;;
7693;SDS011;3889;48.162;11.510;2022-12-18T10:43:29;31.60;;;26.67;;
7693;SDS011;3889;48.162;11.510;2022-12-18T10:45:59;33.77;;;27.23;;
7693;SDS011;3889;48.162;11.510;2022-12-18T10:48:29;34.67;;;28.02;;
7693;SDS011;3889;48.162;11.510;2022-12-18T10:50:58;33.90;;;27.95;;
7693;SDS011;3889;48.162;11.510;2022-12-18T10:53:40;33.70;;;27.25;;
7693;SDS011;3889;48.162;11.510;2022-12-18T10:56:09;34.80;;;28.08;;
7693;SDS011;3889;48.162;11.510;2022-12-18T10:58:37;35.97;;;28.85;;
7693;SDS011;3889;48.162;11.510;2022-12-18T11:01:08;33.78;;;27.98;;
7693;SDS011;3889;48.162;11.510;2022-12-18T11:03:39;34.70;;;28.70;;
7693;SDS011;3889;48.162;11.510;2022-12-18T11:06:08;33.78;;;27.35;;
7693;SDS011;3889;48.162;11.510;2022-12-18T11:08:38;36.55;;;29.52;;
7693;SDS011;3889;48.162;11.510;2022-12-18T11:11:15;34.22;;;27.92;;
7693;SDS011;3889;48.162;11.510;2022-12-18T11:13:52;35.83;;;27.67;;
7693;SDS011;3889;48.162;11.510;2022-12-18T11:16:29;36.42;;;28.83;;
7693;SDS011;3889;48.162;11.510;2022-12-18T11:21:58;35.83;;;28.70;;
7693;SDS011;3889;48.162;11.510;2022-12-18T11:24:30;34.97;;;28.40;;
7693;SDS011;3889;48.162;11.510;2022-12-18T11:27:00;34.42;;;27.98;;
7693;SDS011;3889;48.162;11.510;2022-12-18T11:29:34;34.13;;;28.35;;
7693;SDS011;3889;48.162;11.510;2022-12-18T11:32:23;35.38;;;28.17;;
7693;SDS011;3889;48.162;11.510;2022-12-18T11:34:57;39.25;;;29.65;;
7693;SDS011;3889;48.162;11.510;2022-12-18T11:37:30;36.05;;;28.77;;
7693;SDS011;3889;48.162;11.510;2022-12-18T11:40:03;34.10;;;28.00;;
7693;SDS011;3889;48.162;11.510;2022-12-18T11:42:38;37.40;;;29.98;;
7693;SDS011;3889;48.162;11.510;2022-12-18T11:45:20;35.22;;;29.20;;
7693;SDS011;3889;48.162;11.510;2022-12-18T11:47:55;37.78;;;29.70;;
7693;SDS011;3889;48.162;11.510;2022-12-18T11:50:30;37.88;;;29.25;;
7693;SDS011;3889;48.162;11.510;2022-12-18T11:53:01;36.72;;;30.35;;
7693;SDS011;3889;48.162;11.510;2022-12-18T11:55:36;36.72;;;29.27;;
7693;SDS011;3889;48.162;11.510;2022-12-18T11:58:11;37.97;;;29.63;;
7693;SDS011;3889;48.162;11.510;2022-12-18T12:00:46;36.15;;;29.58;;
7693;SDS011;3889;48.162;11.510;2022-12-18T12:03:20;38.13;;;29.88;;
7693;SDS011;3889;48.162;11.510;2022-12-18T12:06:08;33.53;;;28.27;;
7693;SDS011;3889;48.162;11.510;2022-12-18T12:08:48;36.83;;;28.92;;
7693;SDS011;3889;48.162;11.510;2022-12-18T12:11:26;34.25;;;27.33;;
7693;SDS011;3889;48.162;11.510;2022-12-18T12:14:06;33.78;;;28.20;;
7693;SDS011;3889;48.162;11.510;2022-12-18T12:16:46;33.92;;;28.02;;
7693;SDS011;3889;48.162;11.510;2022-12-18T12:19:23;36.15;;;29.67;;
7693;SDS011;3889;48.162;11.510;2022-12-18T12:22:12;33.20;;;27.45;;
7693;SDS011;3889;48.162;11.510;2022-12-18T12:24:51;36.70;;;28.73;;
7693;SDS011;3889;48.162;11.510;2022-12-18T12:27:31;37.65;;;29.92;;
7693;SDS011;3889;48.162;11.510;2022-12-18T12:30:07;36.50;;;29.73;;
7693;SDS011;3889;48.162;11.510;2022-12-18T12:32:44;36.83;;;29.40;;
7693;SDS011;3889;48.162;11.510;2022-12-18T12:35:23;36.00;;;29.48;;
7693;SDS011;3889;48.162;11.510;2022-12-18T12:38:03;33.28;;;27.40;;
7693;SDS011;3889;48.162;11.510;2022-12-18T12:40:36;33.33;;;26.40;;
7693;SDS011;3889;48.162;11.510;2022-12-18T12:43:28;34.03;;;26.58;;
7693;SDS011;3889;48.162;11.510;2022-12-18T12:46:03;33.38;;;26.92;;
7693;SDS011;3889;48.162;11.510;2022-12-18T12:48:35;35.05;;;28.05;;
7693;SDS011;3889;48.162;11.510;2022-12-18T12:51:12;33.65;;;26.95;;
7693;SDS011;3889;48.162;11.510;2022-12-18T12:53:43;33.58;;;27.20;;
7693;SDS011;3889;48.162;11.510;2022-12-18T12:56:13;32.22;;;26.55;;
7693;SDS011;3889;48.162;11.510;2022-12-18T12:58:49;31.33;;;26.42;;
7693;SDS011;3889;48.162;11.510;2022-12-18T13:01:25;33.65;;;26.73;;
7693;SDS011;3889;48.162;11.510;2022-12-18T13:04:03;30.98;;;25.80;;
7693;SDS011;3889;48.162;11.510;2022-12-18T13:06:43;33.25;;;26.98;;
7693;SDS011;3889;48.162;11.510;2022-12-18T13:09:15;33.10;;;26.70;;
7693;SDS011;3889;48.162;11.510;2022-12-18T13:11:44;31.75;;;25.70;;
7693;SDS011;3889;48.162;11.510;2022-12-18T13:14:32;32.35;;;26.70;;
7693;SDS011;3889;48.162;11.510;2022-12-18T13:22:47;33.63;;;27.30;;
7693;SDS011;3889;48.162;11.510;2022-12-18T13:25:27;34.35;;;27.80;;
7693;SDS011;3889;48.162;11.510;2022-12-18T13:28:05;31.87;;;26.07;;
7693;SDS011;3889;48.162;11.510;2022-12-18T13:30:44;32.63;;;26.80;;
7693;SDS011;3889;48.162;11.510;2022-12-18T13:33:38;31.00;;;25.77;;
7693;SDS011;3889;48.162;11.510;2022-12-18T13:36:32;35.28;;;27.48;;
7693;SDS011;3889;48.162;11.510;2022-12-18T13:39:22;33.05;;;27.00;;
7693;SDS011;3889;48.162;11.510;2022-12-18T13:48:16;33.35;;;27.15;;
7693;SDS011;3889;48.162;11.510;2022-12-18T13:50:48;33.75;;;26.73;;
7693;SDS011;3889;48.162;11.510;2022-12-18T13:53:20;34.15;;;27.13;;
7693;SDS011;3889;48.162;11.510;2022-12-18T13:55:50;33.03;;;26.70;;
7693;SDS011;3889;48.162;11.510;2022-12-18T13:58:19;30.90;;;25.50;;
7693;SDS011;3889;48.162;11.510;2022-12-18T14:00:49;34.55;;;26.83;;
7693;SDS011;3889;48.162;11.510;2022-12-18T14:03:18;31.92;;;26.10;;
7693;SDS011;3889;48.162;11.510;2022-12-18T14:05:52;32.90;;;26.38;;
7693;SDS011;3889;48.162;11.510;2022-12-18T14:08:25;36.13;;;27.23;;
7693;SDS011;3889;48.162;11.510;2022-12-18T14:10:59;34.00;;;26.88;;
7693;SDS011;3889;48.162;11.510;2022-12-18T14:13:30;33.88;;;26.88;;
7693;SDS011;3889;48.162;11.510;2022-12-18T14:16:03;32.92;;;26.17;;
7693;SDS011;3889;48.162;11.510;2022-12-18T14:18:36;34.80;;;28.08;;
7693;SDS011;3889;48.162;11.510;2022-12-18T14:21:15;33.45;;;27.48;;
7693;SDS011;3889;48.162;11.510;2022-12-18T14:23:46;33.55;;;26.02;;
7693;SDS011;3889;48.162;11.510;2022-12-18T14:26:21;35.60;;;27.20;;
7693;SDS011;3889;48.162;11.510;2022-12-18T14:28:51;36.90;;;27.73;;
7693;SDS011;3889;48.162;11.510;2022-12-18T14:31:22;32.47;;;26.75;;
7693;SDS011;3889;48.162;11.510;2022-12-18T14:33:51;35.28;;;28.08;;
7693;SDS011;3889;48.162;11.510;2022-12-18T14:36:20;35.95;;;27.73;;
7693;SDS011;3889;48.162;11.510;2022-12-18T14:38:50;35.63;;;28.08;;
7693;SDS011;3889;48.162;11.510;2022-12-18T14:41:20;37.55;;;28.08;;
7693;SDS011;3889;48.162;11.510;2022-12-18T14:43:49;37.40;;;29.38;;
7693;SDS011;3889;48.162;11.510;2022-12-18T14:46:30;35.63;;;29.23;;
7693;SDS011;3889;48.162;11.510;2022-12-18T14:49:02;39.30;;;29.70;;
7693;SDS011;3889;48.162;11.510;2022-12-18T14:51:33;37.25;;;29.17;;
7693;SDS011;3889;48.162;11.510;2022-12-18T14:54:03;37.92;;;29.88;;
7693;SDS011;3889;48.162;11.510;2022-12-18T14:56:34;39.20;;;29.52;;
7693;SDS011;3889;48.162;11.510;2022-12-18T14:59:04;38.88;;;29.02;;
7693;SDS011;3889;48.162;11.510;2022-12-18T15:01:56;38.05;;;28.70;;
7693;SDS011;3889;48.162;11.510;2022-12-18T15:04:28;35.92;;;28.55;;
7693;SDS011;3889;48.162;11.510;2022-12-18T15:07:04;34.80;;;27.40;;
7693;SDS011;3889;48.162;11.510;2022-12-18T15:09:37;36.20;;;27.93;;
7693;SDS011;3889;48.162;11.510;2022-12-18T15:12:15;34.92;;;27.83;;
7693;SDS011;3889;48.162;11.510;2022-12-18T15:14:49;34.85;;;28.27;;